N463TD KAGS-KFFA
Flight info
| Callsign | N463TD |
|---|---|
| Flight time | N/A |
| Altitude | 7000 |
| Route | SSC NJM VFR |
| Aircraft | AEST/L-SDFGRY/S |
Departure
| Time | N/A |
|---|---|
| Airport | Augusta Regional At Bush Field (KAGS) |
Arrival
| Time | 2026-04-22 21:23 |
|---|---|
| Airport | First Flight Airport (KFFA) |
| Time | Latitude | Longitude | Altitude | Speed | Heading |
|---|---|---|---|---|---|
| 2026-04-22 20:14 | 34.27832 | -78.70875 | 76 ft | 0 kts | 142° |
| 2026-04-22 20:15 | 34.27803 | -78.70845 | 76 ft | 10 kts | 144° |
| 2026-04-22 20:15 | 34.27750 | -78.70888 | 76 ft | 13 kts | 227° |
| 2026-04-22 20:15 | 34.27507 | -78.71205 | 88 ft | 85 kts | 227° |
| 2026-04-22 20:15 | 34.27052 | -78.71829 | 171 ft | 110 kts | 230° |
| 2026-04-22 20:16 | 34.26695 | -78.72340 | 267 ft | 129 kts | 234° |
| 2026-04-22 20:16 | 34.26056 | -78.73156 | 562 ft | 141 kts | 210° |
| 2026-04-22 20:16 | 34.25063 | -78.73267 | 792 ft | 154 kts | 160° |
| 2026-04-22 20:16 | 34.24275 | -78.71852 | 1189 ft | 157 kts | 96° |
| 2026-04-22 20:17 | 34.24385 | -78.71010 | 1506 ft | 148 kts | 76° |
| 2026-04-22 20:17 | 34.24627 | -78.69786 | 1710 ft | 154 kts | 83° |
| 2026-04-22 20:17 | 34.24740 | -78.68479 | 1882 ft | 157 kts | 84° |
| 2026-04-22 20:17 | 34.24879 | -78.67207 | 2241 ft | 150 kts | 81° |
| 2026-04-22 20:18 | 34.25030 | -78.65958 | 2454 ft | 152 kts | 84° |
| 2026-04-22 20:18 | 34.25117 | -78.64675 | 2640 ft | 154 kts | 86° |
| 2026-04-22 20:18 | 34.25211 | -78.63388 | 2870 ft | 153 kts | 84° |
| 2026-04-22 20:18 | 34.25325 | -78.62111 | 3082 ft | 153 kts | 84° |
| 2026-04-22 20:19 | 34.25448 | -78.60827 | 3263 ft | 154 kts | 82° |
| 2026-04-22 20:19 | 34.25690 | -78.59559 | 3484 ft | 156 kts | 76° |
| 2026-04-22 20:19 | 34.25893 | -78.58285 | 3756 ft | 153 kts | 82° |
| 2026-04-22 20:19 | 34.25987 | -78.57003 | 3976 ft | 154 kts | 87° |
| 2026-04-22 20:20 | 34.26072 | -78.55705 | 4188 ft | 155 kts | 84° |
| 2026-04-22 20:20 | 34.26156 | -78.54412 | 4421 ft | 154 kts | 87° |
| 2026-04-22 20:20 | 34.26209 | -78.53120 | 4619 ft | 155 kts | 87° |
| 2026-04-22 20:20 | 34.26253 | -78.51803 | 4703 ft | 162 kts | 88° |
| 2026-04-22 20:21 | 34.26405 | -78.50436 | 4809 ft | 167 kts | 77° |
| 2026-04-22 20:21 | 34.26704 | -78.49056 | 4870 ft | 172 kts | 75° |
| 2026-04-22 20:21 | 34.27015 | -78.47624 | 4853 ft | 181 kts | 78° |
| 2026-04-22 20:21 | 34.27260 | -78.46099 | 4827 ft | 186 kts | 80° |
| 2026-04-22 20:22 | 34.27476 | -78.44541 | 4839 ft | 189 kts | 81° |
| 2026-04-22 20:22 | 34.27684 | -78.42955 | 4841 ft | 192 kts | 81° |
| 2026-04-22 20:22 | 34.27895 | -78.41345 | 4831 ft | 195 kts | 81° |
| 2026-04-22 20:22 | 34.28109 | -78.39728 | 4841 ft | 195 kts | 81° |
| 2026-04-22 20:23 | 34.28325 | -78.38108 | 4840 ft | 195 kts | 81° |
| 2026-04-22 20:23 | 34.28546 | -78.36482 | 4836 ft | 197 kts | 81° |
| 2026-04-22 20:23 | 34.28768 | -78.34844 | 4827 ft | 197 kts | 81° |
| 2026-04-22 20:23 | 34.28987 | -78.33211 | 4828 ft | 196 kts | 81° |
| 2026-04-22 20:24 | 34.29206 | -78.31587 | 4841 ft | 195 kts | 81° |
| 2026-04-22 20:24 | 34.29429 | -78.29966 | 4831 ft | 195 kts | 81° |
| 2026-04-22 20:24 | 34.29653 | -78.28345 | 4831 ft | 195 kts | 81° |
| 2026-04-22 20:24 | 34.29876 | -78.26727 | 4836 ft | 195 kts | 81° |
| 2026-04-22 20:25 | 34.30096 | -78.25112 | 4834 ft | 195 kts | 81° |
| 2026-04-22 20:25 | 34.30316 | -78.23494 | 4834 ft | 195 kts | 81° |
| 2026-04-22 20:25 | 34.30536 | -78.21875 | 4840 ft | 195 kts | 81° |
| 2026-04-22 20:25 | 34.30756 | -78.20255 | 4834 ft | 196 kts | 81° |
| 2026-04-22 20:26 | 34.30976 | -78.18632 | 4836 ft | 195 kts | 81° |
| 2026-04-22 20:26 | 34.31195 | -78.17012 | 4838 ft | 195 kts | 81° |
| 2026-04-22 20:26 | 34.31411 | -78.15413 | 4836 ft | 195 kts | 81° |
| 2026-04-22 20:26 | 34.31631 | -78.13792 | 4834 ft | 195 kts | 81° |
| 2026-04-22 20:27 | 34.31850 | -78.12172 | 4841 ft | 196 kts | 81° |
| 2026-04-22 20:27 | 34.32070 | -78.10547 | 4834 ft | 195 kts | 81° |
| 2026-04-22 20:27 | 34.32288 | -78.08928 | 4838 ft | 195 kts | 81° |
| 2026-04-22 20:27 | 34.32508 | -78.07303 | 4831 ft | 196 kts | 81° |
| 2026-04-22 20:28 | 34.32727 | -78.05679 | 4833 ft | 195 kts | 81° |
| 2026-04-22 20:28 | 34.32944 | -78.04061 | 4835 ft | 195 kts | 81° |
| 2026-04-22 20:28 | 34.33162 | -78.02443 | 4836 ft | 195 kts | 81° |
| 2026-04-22 20:28 | 34.33379 | -78.00829 | 4838 ft | 195 kts | 81° |
| 2026-04-22 20:29 | 34.33596 | -77.99206 | 4833 ft | 195 kts | 81° |
| 2026-04-22 20:29 | 34.33812 | -77.97590 | 4837 ft | 195 kts | 81° |
| 2026-04-22 20:29 | 34.34029 | -77.95971 | 4834 ft | 195 kts | 81° |
| 2026-04-22 20:29 | 34.34245 | -77.94356 | 4836 ft | 194 kts | 81° |
| 2026-04-22 20:30 | 34.34461 | -77.92740 | 4836 ft | 194 kts | 81° |
| 2026-04-22 20:30 | 34.34676 | -77.91127 | 4843 ft | 195 kts | 81° |
| 2026-04-22 20:30 | 34.34892 | -77.89508 | 4833 ft | 195 kts | 81° |
| 2026-04-22 20:30 | 34.35107 | -77.87890 | 4838 ft | 195 kts | 81° |
| 2026-04-22 20:31 | 34.35323 | -77.86271 | 4838 ft | 195 kts | 81° |
| 2026-04-22 20:31 | 34.35538 | -77.84654 | 4836 ft | 195 kts | 81° |
| 2026-04-22 20:31 | 34.35753 | -77.83037 | 4836 ft | 195 kts | 81° |
| 2026-04-22 20:31 | 34.35966 | -77.81422 | 4837 ft | 194 kts | 81° |
| 2026-04-22 20:32 | 34.36211 | -77.79814 | 4837 ft | 195 kts | 79° |
| 2026-04-22 20:32 | 34.36415 | -77.78214 | 4832 ft | 195 kts | 83° |
| 2026-04-22 20:32 | 34.36649 | -77.76599 | 4844 ft | 194 kts | 78° |
| 2026-04-22 20:32 | 34.36913 | -77.74989 | 4831 ft | 195 kts | 79° |
| 2026-04-22 20:33 | 34.37183 | -77.73385 | 4836 ft | 194 kts | 79° |
| 2026-04-22 20:33 | 34.37457 | -77.71781 | 4836 ft | 195 kts | 78° |
| 2026-04-22 20:33 | 34.37732 | -77.70180 | 4840 ft | 195 kts | 78° |
| 2026-04-22 20:33 | 34.38010 | -77.68571 | 4836 ft | 196 kts | 78° |
| 2026-04-22 20:34 | 34.38290 | -77.66962 | 4836 ft | 195 kts | 78° |
| 2026-04-22 20:34 | 34.38571 | -77.65356 | 4837 ft | 195 kts | 78° |
| 2026-04-22 20:34 | 34.38933 | -77.63777 | 4837 ft | 195 kts | 72° |
| 2026-04-22 20:34 | 34.39396 | -77.62235 | 4836 ft | 195 kts | 66° |
| 2026-04-22 20:35 | 34.39974 | -77.60750 | 4837 ft | 195 kts | 64° |
| 2026-04-22 20:35 | 34.40566 | -77.59274 | 4836 ft | 195 kts | 64° |
| 2026-04-22 20:35 | 34.41161 | -77.57797 | 4833 ft | 195 kts | 64° |
| 2026-04-22 20:35 | 34.41755 | -77.56324 | 4836 ft | 195 kts | 64° |
| 2026-04-22 20:36 | 34.42352 | -77.54850 | 4841 ft | 195 kts | 64° |
| 2026-04-22 20:36 | 34.42952 | -77.53372 | 4835 ft | 196 kts | 64° |
| 2026-04-22 20:36 | 34.43553 | -77.51893 | 4832 ft | 196 kts | 64° |
| 2026-04-22 20:36 | 34.44156 | -77.50414 | 4834 ft | 195 kts | 64° |
| 2026-04-22 20:37 | 34.44757 | -77.48938 | 4835 ft | 195 kts | 64° |
| 2026-04-22 20:37 | 34.45360 | -77.47465 | 4838 ft | 195 kts | 64° |
| 2026-04-22 20:37 | 34.45961 | -77.45996 | 4838 ft | 195 kts | 64° |
| 2026-04-22 20:37 | 34.46565 | -77.44526 | 4836 ft | 195 kts | 64° |
| 2026-04-22 20:38 | 34.47162 | -77.43073 | 4837 ft | 195 kts | 64° |
| 2026-04-22 20:38 | 34.47770 | -77.41600 | 4830 ft | 195 kts | 64° |
| 2026-04-22 20:38 | 34.48377 | -77.40128 | 4833 ft | 195 kts | 64° |
| 2026-04-22 20:38 | 34.48986 | -77.38657 | 4832 ft | 195 kts | 63° |
| 2026-04-22 20:39 | 34.49595 | -77.37188 | 4835 ft | 195 kts | 63° |
| 2026-04-22 20:39 | 34.50204 | -77.35722 | 4839 ft | 195 kts | 63° |
| 2026-04-22 20:39 | 34.50813 | -77.34256 | 4835 ft | 195 kts | 63° |
| 2026-04-22 20:39 | 34.51426 | -77.32788 | 4838 ft | 195 kts | 63° |
| 2026-04-22 20:40 | 34.52037 | -77.31325 | 4838 ft | 195 kts | 63° |
| 2026-04-22 20:40 | 34.52651 | -77.29860 | 4837 ft | 195 kts | 63° |
| 2026-04-22 20:40 | 34.53266 | -77.28394 | 4837 ft | 195 kts | 63° |
| 2026-04-22 20:40 | 34.53882 | -77.26927 | 4836 ft | 195 kts | 63° |
| 2026-04-22 20:41 | 34.54499 | -77.25462 | 4833 ft | 195 kts | 63° |
| 2026-04-22 20:41 | 34.55117 | -77.23997 | 4836 ft | 195 kts | 63° |
| 2026-04-22 20:41 | 34.55736 | -77.22533 | 4836 ft | 195 kts | 63° |
| 2026-04-22 20:41 | 34.56356 | -77.21070 | 4836 ft | 195 kts | 63° |
| 2026-04-22 20:42 | 34.56976 | -77.19609 | 4837 ft | 195 kts | 63° |
| 2026-04-22 20:42 | 34.57596 | -77.18151 | 4838 ft | 195 kts | 63° |
| 2026-04-22 20:42 | 34.58220 | -77.16688 | 4835 ft | 195 kts | 63° |
| 2026-04-22 20:42 | 34.58843 | -77.15228 | 4837 ft | 195 kts | 63° |
| 2026-04-22 20:43 | 34.59468 | -77.13768 | 4837 ft | 195 kts | 63° |
| 2026-04-22 20:43 | 34.60094 | -77.12308 | 4837 ft | 195 kts | 63° |
| 2026-04-22 20:43 | 34.60720 | -77.10850 | 4838 ft | 195 kts | 63° |
| 2026-04-22 20:43 | 34.61347 | -77.09393 | 4838 ft | 195 kts | 63° |
| 2026-04-22 20:44 | 34.61976 | -77.07934 | 4836 ft | 195 kts | 63° |
| 2026-04-22 20:44 | 34.62607 | -77.06475 | 4831 ft | 195 kts | 62° |
| 2026-04-22 20:44 | 34.63239 | -77.05013 | 4830 ft | 195 kts | 62° |
| 2026-04-22 20:44 | 34.63871 | -77.03558 | 4837 ft | 195 kts | 62° |
| 2026-04-22 20:45 | 34.64503 | -77.02101 | 4834 ft | 195 kts | 62° |
| 2026-04-22 20:45 | 34.65137 | -77.00645 | 4835 ft | 195 kts | 62° |
| 2026-04-22 20:45 | 34.65772 | -76.99191 | 4837 ft | 195 kts | 62° |
| 2026-04-22 20:45 | 34.66398 | -76.97757 | 4836 ft | 195 kts | 62° |
| 2026-04-22 20:46 | 34.67672 | -76.94851 | 4837 ft | 195 kts | 62° |
| 2026-04-22 20:46 | 34.68312 | -76.93396 | 4835 ft | 196 kts | 62° |
| 2026-04-22 20:46 | 34.68954 | -76.91939 | 4835 ft | 195 kts | 62° |
| 2026-04-22 20:47 | 34.69596 | -76.90484 | 4836 ft | 195 kts | 62° |
| 2026-04-22 20:47 | 34.70238 | -76.89033 | 4836 ft | 195 kts | 62° |
| 2026-04-22 20:47 | 34.70881 | -76.87580 | 4837 ft | 195 kts | 62° |
| 2026-04-22 20:47 | 34.71526 | -76.86129 | 4837 ft | 195 kts | 62° |
| 2026-04-22 20:48 | 34.72172 | -76.84674 | 4836 ft | 195 kts | 62° |
| 2026-04-22 20:48 | 34.72819 | -76.83221 | 4836 ft | 195 kts | 62° |
| 2026-04-22 20:48 | 34.73468 | -76.81768 | 4833 ft | 196 kts | 62° |
| 2026-04-22 20:48 | 34.74118 | -76.80312 | 4832 ft | 196 kts | 62° |
| 2026-04-22 20:49 | 34.74770 | -76.78856 | 4830 ft | 196 kts | 62° |
| 2026-04-22 20:49 | 34.75423 | -76.77400 | 4834 ft | 196 kts | 62° |
| 2026-04-22 20:49 | 34.76076 | -76.75948 | 4834 ft | 196 kts | 61° |
| 2026-04-22 20:49 | 34.76729 | -76.74499 | 4836 ft | 195 kts | 61° |
| 2026-04-22 20:50 | 34.77384 | -76.73049 | 4838 ft | 195 kts | 61° |
| 2026-04-22 20:50 | 34.78018 | -76.71648 | 4829 ft | 196 kts | 61° |
| 2026-04-22 20:50 | 34.78677 | -76.70195 | 4832 ft | 196 kts | 61° |
| 2026-04-22 20:50 | 34.79324 | -76.68762 | 4837 ft | 196 kts | 61° |
| 2026-04-22 20:51 | 34.79993 | -76.67289 | 4823 ft | 197 kts | 61° |
| 2026-04-22 20:51 | 34.80656 | -76.65834 | 4831 ft | 196 kts | 61° |
| 2026-04-22 20:51 | 34.81317 | -76.64386 | 4838 ft | 196 kts | 61° |
| 2026-04-22 20:51 | 34.81980 | -76.62935 | 4835 ft | 196 kts | 61° |
| 2026-04-22 20:52 | 34.82627 | -76.61523 | 4818 ft | 197 kts | 61° |
| 2026-04-22 20:52 | 34.83292 | -76.60076 | 4834 ft | 196 kts | 61° |
| 2026-04-22 20:52 | 34.83956 | -76.58631 | 4836 ft | 196 kts | 61° |
| 2026-04-22 20:52 | 34.84602 | -76.57224 | 4838 ft | 196 kts | 61° |
| 2026-04-22 20:53 | 34.85251 | -76.55743 | 4822 ft | 213 kts | 61° |
| 2026-04-22 20:53 | 34.85917 | -76.54212 | 4827 ft | 199 kts | 61° |
| 2026-04-22 20:53 | 34.86591 | -76.52750 | 4825 ft | 197 kts | 60° |
| 2026-04-22 20:53 | 34.87265 | -76.51300 | 4836 ft | 197 kts | 60° |
| 2026-04-22 20:54 | 34.87939 | -76.49851 | 4835 ft | 197 kts | 60° |
| 2026-04-22 20:54 | 34.88614 | -76.48401 | 4826 ft | 197 kts | 60° |
| 2026-04-22 20:54 | 34.89288 | -76.46957 | 4820 ft | 196 kts | 60° |
| 2026-04-22 20:54 | 34.89962 | -76.45514 | 4831 ft | 196 kts | 60° |
| 2026-04-22 20:55 | 34.90663 | -76.44089 | 4836 ft | 196 kts | 52° |
| 2026-04-22 20:55 | 34.91707 | -76.43046 | 4847 ft | 196 kts | 32° |
| 2026-04-22 20:55 | 34.92904 | -76.42248 | 4827 ft | 196 kts | 27° |
| 2026-04-22 20:55 | 34.94122 | -76.41497 | 4837 ft | 196 kts | 26° |
| 2026-04-22 20:56 | 34.95339 | -76.40753 | 4838 ft | 196 kts | 26° |
| 2026-04-22 20:56 | 34.96557 | -76.40011 | 4837 ft | 196 kts | 26° |
| 2026-04-22 20:56 | 34.97776 | -76.39271 | 4837 ft | 196 kts | 26° |
| 2026-04-22 20:56 | 34.98994 | -76.38532 | 4837 ft | 196 kts | 26° |
| 2026-04-22 20:57 | 35.00213 | -76.37795 | 4834 ft | 196 kts | 26° |
| 2026-04-22 20:57 | 35.01435 | -76.37058 | 4833 ft | 196 kts | 26° |
| 2026-04-22 20:57 | 35.02655 | -76.36323 | 4833 ft | 195 kts | 26° |
| 2026-04-22 20:57 | 35.03876 | -76.35588 | 4835 ft | 195 kts | 26° |
| 2026-04-22 20:58 | 35.05094 | -76.34857 | 4834 ft | 195 kts | 26° |
| 2026-04-22 20:58 | 35.06317 | -76.34124 | 4832 ft | 196 kts | 26° |
| 2026-04-22 20:58 | 35.07535 | -76.33396 | 4835 ft | 195 kts | 26° |
| 2026-04-22 20:58 | 35.08740 | -76.32676 | 4835 ft | 195 kts | 26° |
| 2026-04-22 20:59 | 35.09961 | -76.31949 | 4838 ft | 195 kts | 26° |
| 2026-04-22 20:59 | 35.11181 | -76.31223 | 4836 ft | 195 kts | 26° |
| 2026-04-22 20:59 | 35.12402 | -76.30498 | 4836 ft | 195 kts | 25° |
| 2026-04-22 20:59 | 35.13625 | -76.29773 | 4832 ft | 195 kts | 25° |
| 2026-04-22 21:00 | 35.14848 | -76.29050 | 4837 ft | 195 kts | 25° |
| 2026-04-22 21:00 | 35.16031 | -76.28352 | 4827 ft | 196 kts | 25° |
| 2026-04-22 21:00 | 35.17258 | -76.27629 | 4830 ft | 195 kts | 25° |
| 2026-04-22 21:00 | 35.18484 | -76.26908 | 4831 ft | 195 kts | 25° |
| 2026-04-22 21:01 | 35.19633 | -76.26232 | 4849 ft | 194 kts | 25° |
| 2026-04-22 21:01 | 35.20854 | -76.25515 | 4828 ft | 195 kts | 25° |
| 2026-04-22 21:01 | 35.22080 | -76.24797 | 4834 ft | 195 kts | 25° |
| 2026-04-22 21:01 | 35.23307 | -76.24081 | 4833 ft | 195 kts | 25° |
| 2026-04-22 21:02 | 35.24538 | -76.23363 | 4831 ft | 195 kts | 25° |
| 2026-04-22 21:02 | 35.25766 | -76.22649 | 4835 ft | 195 kts | 25° |
| 2026-04-22 21:02 | 35.26906 | -76.21795 | 4831 ft | 195 kts | 38° |
| 2026-04-22 21:02 | 35.27963 | -76.20757 | 4842 ft | 195 kts | 39° |
| 2026-04-22 21:03 | 35.29021 | -76.19708 | 4835 ft | 196 kts | 39° |
| 2026-04-22 21:03 | 35.30077 | -76.18660 | 4841 ft | 195 kts | 39° |
| 2026-04-22 21:03 | 35.30539 | -76.18201 | 4840 ft | 195 kts | 39° |
| 2026-04-22 21:04 | 35.31513 | -76.17235 | 4835 ft | 196 kts | 39° |
| 2026-04-22 21:04 | 35.32571 | -76.16187 | 4837 ft | 195 kts | 39° |
| 2026-04-22 21:04 | 35.33628 | -76.15143 | 4834 ft | 196 kts | 39° |
| 2026-04-22 21:05 | 35.34331 | -76.14449 | 4836 ft | 196 kts | 39° |
| 2026-04-22 21:05 | 35.35722 | -76.13077 | 4821 ft | 196 kts | 39° |
| 2026-04-22 21:05 | 35.36784 | -76.12031 | 4834 ft | 196 kts | 38° |
| 2026-04-22 21:05 | 35.37831 | -76.11000 | 4828 ft | 187 kts | 39° |
| 2026-04-22 21:06 | 35.38829 | -76.09999 | 4609 ft | 187 kts | 39° |
| 2026-04-22 21:06 | 35.39846 | -76.08936 | 4214 ft | 196 kts | 41° |
| 2026-04-22 21:06 | 35.40850 | -76.07818 | 3993 ft | 192 kts | 42° |
| 2026-04-22 21:06 | 35.41825 | -76.06736 | 3825 ft | 186 kts | 41° |
| 2026-04-22 21:07 | 35.42469 | -76.06048 | 3612 ft | 186 kts | 40° |
| 2026-04-22 21:07 | 35.43491 | -76.05035 | 3176 ft | 192 kts | 37° |
| 2026-04-22 21:07 | 35.44568 | -76.04062 | 2848 ft | 191 kts | 35° |
| 2026-04-22 21:07 | 35.45661 | -76.03174 | 2602 ft | 187 kts | 31° |
| 2026-04-22 21:08 | 35.46792 | -76.02381 | 2270 ft | 188 kts | 28° |
| 2026-04-22 21:08 | 35.47963 | -76.01641 | 1933 ft | 191 kts | 26° |
| 2026-04-22 21:08 | 35.49170 | -76.00867 | 1725 ft | 197 kts | 29° |
| 2026-04-22 21:08 | 35.50330 | -76.00009 | 1769 ft | 191 kts | 32° |
| 2026-04-22 21:09 | 35.51368 | -75.99068 | 1907 ft | 183 kts | 38° |
| 2026-04-22 21:09 | 35.52360 | -75.98112 | 1975 ft | 180 kts | 38° |
| 2026-04-22 21:09 | 35.53337 | -75.97171 | 2058 ft | 177 kts | 38° |
| 2026-04-22 21:09 | 35.54302 | -75.96244 | 2122 ft | 175 kts | 38° |
| 2026-04-22 21:10 | 35.55263 | -75.95322 | 2195 ft | 175 kts | 38° |
| 2026-04-22 21:10 | 35.56221 | -75.94401 | 2261 ft | 175 kts | 38° |
| 2026-04-22 21:10 | 35.57181 | -75.93484 | 2337 ft | 175 kts | 38° |
| 2026-04-22 21:10 | 35.58140 | -75.92570 | 2404 ft | 174 kts | 38° |
| 2026-04-22 21:11 | 35.59096 | -75.91658 | 2474 ft | 174 kts | 38° |
| 2026-04-22 21:11 | 35.60049 | -75.90751 | 2541 ft | 173 kts | 37° |
| 2026-04-22 21:11 | 35.60999 | -75.89848 | 2628 ft | 172 kts | 37° |
| 2026-04-22 21:11 | 35.61947 | -75.88949 | 2704 ft | 173 kts | 37° |
| 2026-04-22 21:12 | 35.62903 | -75.88043 | 2770 ft | 173 kts | 37° |
| 2026-04-22 21:12 | 35.63843 | -75.87154 | 2838 ft | 173 kts | 37° |
| 2026-04-22 21:12 | 35.64798 | -75.86252 | 2903 ft | 173 kts | 37° |
| 2026-04-22 21:12 | 35.65749 | -75.85354 | 2975 ft | 172 kts | 37° |
| 2026-04-22 21:13 | 35.66699 | -75.84459 | 3044 ft | 172 kts | 37° |
| 2026-04-22 21:13 | 35.67647 | -75.83567 | 3114 ft | 171 kts | 37° |
| 2026-04-22 21:13 | 35.68595 | -75.82676 | 3182 ft | 171 kts | 37° |
| 2026-04-22 21:13 | 35.69551 | -75.81781 | 3196 ft | 175 kts | 37° |
| 2026-04-22 21:14 | 35.70529 | -75.80864 | 3173 ft | 179 kts | 37° |
| 2026-04-22 21:14 | 35.71523 | -75.79935 | 3173 ft | 180 kts | 37° |
| 2026-04-22 21:14 | 35.72527 | -75.78998 | 3171 ft | 181 kts | 37° |
| 2026-04-22 21:14 | 35.73532 | -75.78061 | 3175 ft | 182 kts | 37° |
| 2026-04-22 21:15 | 35.74539 | -75.77122 | 3175 ft | 179 kts | 37° |
| 2026-04-22 21:15 | 35.75510 | -75.76181 | 3061 ft | 178 kts | 39° |
| 2026-04-22 21:15 | 35.76451 | -75.75164 | 2872 ft | 180 kts | 43° |
| 2026-04-22 21:15 | 35.77364 | -75.74123 | 2797 ft | 177 kts | 42° |
| 2026-04-22 21:16 | 35.78284 | -75.73122 | 2666 ft | 177 kts | 41° |
| 2026-04-22 21:16 | 35.79221 | -75.72113 | 2501 ft | 179 kts | 41° |
| 2026-04-22 21:16 | 35.80166 | -75.71124 | 2373 ft | 178 kts | 39° |
| 2026-04-22 21:16 | 35.81146 | -75.70193 | 2249 ft | 177 kts | 35° |
| 2026-04-22 21:17 | 35.82159 | -75.69324 | 2111 ft | 178 kts | 34° |
| 2026-04-22 21:17 | 35.83191 | -75.68486 | 1976 ft | 178 kts | 32° |
| 2026-04-22 21:17 | 35.84258 | -75.67717 | 1850 ft | 177 kts | 27° |
| 2026-04-22 21:17 | 35.85375 | -75.67067 | 1714 ft | 178 kts | 24° |
| 2026-04-22 21:18 | 35.86510 | -75.66474 | 1595 ft | 177 kts | 21° |
| 2026-04-22 21:18 | 35.87662 | -75.65946 | 1476 ft | 177 kts | 20° |
| 2026-04-22 21:18 | 35.88828 | -75.65462 | 1350 ft | 177 kts | 14° |
| 2026-04-22 21:18 | 35.90049 | -75.65143 | 1233 ft | 181 kts | 10° |
| 2026-04-22 21:19 | 35.91274 | -75.64858 | 1260 ft | 176 kts | 9° |
| 2026-04-22 21:19 | 35.92475 | -75.64613 | 1233 ft | 175 kts | 9° |
| 2026-04-22 21:19 | 35.93691 | -75.64342 | 1141 ft | 179 kts | 9° |
| 2026-04-22 21:19 | 35.94926 | -75.64152 | 1111 ft | 179 kts | 1° |
| 2026-04-22 21:20 | 35.96139 | -75.64383 | 975 ft | 182 kts | 340° |
| 2026-04-22 21:20 | 35.97311 | -75.64957 | 926 ft | 179 kts | 338° |
| 2026-04-22 21:20 | 35.98476 | -75.65457 | 882 ft | 176 kts | 340° |
| 2026-04-22 21:20 | 35.99642 | -75.65963 | 788 ft | 180 kts | 339° |
| 2026-04-22 21:21 | 36.00771 | -75.66632 | 755 ft | 181 kts | 324° |
| 2026-04-22 21:21 | 36.01666 | -75.67629 | 707 ft | 163 kts | 313° |
| 2026-04-22 21:21 | 36.02593 | -75.68175 | 611 ft | 143 kts | 4° |
| 2026-04-22 21:21 | 36.03471 | -75.67757 | 604 ft | 138 kts | 30° |
| 2026-04-22 21:22 | 36.04245 | -75.67058 | 525 ft | 127 kts | 54° |
| 2026-04-22 21:22 | 36.04347 | -75.66086 | 552 ft | 114 kts | 119° |
| 2026-04-22 21:22 | 36.03693 | -75.65797 | 487 ft | 109 kts | 214° |
| 2026-04-22 21:22 | 36.03201 | -75.66489 | 343 ft | 104 kts | 216° |
| 2026-04-22 21:23 | 36.02548 | -75.66890 | 127 ft | 105 kts | 196° |
| 2026-04-22 21:23 | 36.01901 | -75.67113 | 18 ft | 77 kts | 194° |
| 2026-04-22 21:23 | 36.01569 | -75.67225 | 15 ft | 27 kts | 198° |
| 2026-04-22 21:23 | 36.01474 | -75.67242 | 16 ft | 7 kts | 121° |
| 2026-04-22 21:24 | 36.01461 | -75.67180 | 18 ft | 7 kts | 110° |
| 2026-04-22 21:24 | 36.01439 | -75.67167 | 18 ft | 0 kts | 200° |